1973 NOT_NAMED (1973349S13154)


IBTrACS version v04r00. Visit IBTrACS website for data access.
Please direct all questions to the IBTrACS Q and A forum

Storm track - Intensity - Wind Radii - Intensity Data - Source Data - All data

Summary Information

Storm ID 1973349S13154
Start Dec 15 00Z
End Dec 16 03Z
ATCF IDs SH101974
Track status Best track data.
Spur track This storm is a spur track associated with the main storm: 1973349S14157

Storm track plot

Map of storm track

Intensity plots

No Intensity information for this storm


Radial wind information

No radial wind information for this storm


Position and Intensity Table

BASIN ISO_TIME_________ NATURE LAT LON
degrees north degrees east
SP 1973-12-15 00:00:00 TS -13.00 153.80
SP 02:00:00 TS -12.79 153.94
SP 03:00:00 TS -12.69 154.00
SP 05:00:00 TS -12.51 154.12
SP 06:00:00 TS -12.43 154.18
SP 08:00:00 TS -12.33 154.27
SP 09:00:00 TS -12.30 154.31
SP 11:00:00 TS -12.28 154.37
SP 12:00:00 TS -12.30 154.40
SP 14:00:00 TS -12.38 154.45
SP 15:00:00 TS -12.44 154.47
SP 17:00:00 TS -12.58 154.51
SP 18:00:00 TS -12.66 154.52
SP 20:00:00 TS -12.80 154.53
SP 21:00:00 TS -12.87 154.53
SP 23:00:00 TS -13.02 154.52
SP 1973-12-16 00:00:00 TS -13.10 154.50
SP 02:00:00 TS -13.27 154.46
SP 03:00:00 NR -13.35 154.44

Source Information

Agency Information
USA bsh101974.txt
TOKYO
CMA
HKO
NEWDELHI
REUNION
BOM
NADI
WELLINGTON
DS824 s_hem.dat:1238:10P
TD9636 cons_worldwide_trop_cyclone_18710101-19891231-006:Line=9424
TD9635
NEUMANN
MLC

All available IBTrACS Data

SEASON BASIN SUBBASIN ISO_TIME_________ NATURE LAT LON DIST2LAND LANDFALL IFLAG USA AGENCY USA ATCF_ID USA LAT USA LON USA SSHS DS824 LAT DS824 LON DS824 STAGE TD9636 LAT TD9636 LON TD9636 STAGE STORM SPEED STORM DIR
Year degrees north degrees east km km degrees north degrees east 1 degrees north degrees east degrees north degrees east kts degrees
1974 SP EA 1973-12-15 00:00:00 TS -13.00 153.80 431 424 O________OO___ jtwc_sh SH101974 -13.00 153.80 -1 -13.00 153.80 TC -13.00 153.80 2 8 32
1974 SP EA 02:00:00 TS -12.79 153.94 426 426 P________PP___ SH101974 -12.77 153.95 -1 -12.77 153.95 TC -12.88 153.90 2 7 32
1974 SP EA 03:00:00 TS -12.69 154.00 429 423 P________PP___ SH101974 -12.66 154.02 -1 -12.66 154.02 TC -12.83 153.95 2 7 33
1974 SP EA 05:00:00 TS -12.51 154.12 427 427 P________PP___ SH101974 -12.47 154.15 -1 -12.47 154.15 TC -12.71 154.05 2 6 35
1974 SP EA 06:00:00 TS -12.43 154.18 431 426 O________OP___ jtwc_sh SH101974 -12.40 154.20 -1 -12.40 154.20 TC -12.65 154.10 2 5 38
1974 SP EA 08:00:00 TS -12.33 154.27 436 436 P________PP___ SH101974 -12.30 154.29 -1 -12.30 154.29 TC -12.53 154.20 2 4 43
1974 SP EA 09:00:00 TS -12.30 154.31 436 436 P________PP___ SH101974 -12.27 154.32 -1 -12.27 154.32 TC -12.48 154.25 2 2 66
1974 SP EA 11:00:00 TS -12.28 154.37 446 446 P________PP___ SH101974 -12.27 154.38 -1 -12.27 154.38 TC -12.36 154.35 2 2 91
1974 SP EA 12:00:00 TS -12.30 154.40 446 446 O________OO___ jtwc_sh SH101974 -12.30 154.40 -1 -12.30 154.40 TC -12.30 154.40 2 2 139
1974 SP EA 14:00:00 TS -12.38 154.45 460 460 P________PP___ SH101974 -12.39 154.45 -1 -12.39 154.45 TC -12.43 154.42 2 3 154
1974 SP EA 15:00:00 TS -12.44 154.47 460 460 P________PP___ SH101974 -12.46 154.46 -1 -12.46 154.46 TC -12.50 154.42 2 4 164
1974 SP EA 17:00:00 TS -12.58 154.51 470 470 P________PP___ SH101974 -12.62 154.49 -1 -12.62 154.49 TC -12.63 154.44 2 5 168
1974 SP EA 18:00:00 TS -12.66 154.52 476 476 O________OP___ jtwc_sh SH101974 -12.70 154.50 -1 -12.70 154.50 TC -12.70 154.45 2 4 0
1974 SP EA 20:00:00 TS -12.80 154.53 481 481 P________PP___ SH101974 -12.85 154.51 -1 -12.85 154.51 TC -12.83 154.47 2 4 175
1974 SP EA 21:00:00 TS -12.87 154.53 487 487 P________PP___ SH101974 -12.91 154.51 -1 -12.91 154.51 TC -12.90 154.47 2 5 185
1974 SP EA 23:00:00 TS -13.02 154.52 493 493 P________PP___ SH101974 -13.04 154.50 -1 -13.04 154.50 TC -13.03 154.49 2 5 189
1974 SP EA 1973-12-16 00:00:00 TS -13.10 154.50 499 499 O________OO___ jtwc_sh SH101974 -13.10 154.50 -1 -13.10 154.50 TC -13.10 154.50 2 5 194
1974 SP EA 02:00:00 TS -13.27 154.46 512 503 ______________ SH101974 -1 TC 2 5 193
1974 SP EA 03:00:00 NR -13.35 154.44 503 ______________ SH101974 -1 TC 2 5 198